sensor_id;sensor_type;location;lat;lon;timestamp;P1;durP1;ratioP1;P2;durP2;ratioP2
24337;SDS011;12457;50.832;4.346;2023-04-25T00:02:25;20.25;;;4.60;;
24337;SDS011;12457;50.832;4.346;2023-04-25T00:04:51;20.33;;;5.05;;
24337;SDS011;12457;50.832;4.346;2023-04-25T00:07:17;17.90;;;3.83;;
24337;SDS011;12457;50.832;4.346;2023-04-25T00:09:43;13.73;;;3.95;;
24337;SDS011;12457;50.832;4.346;2023-04-25T00:12:09;19.77;;;4.97;;
24337;SDS011;12457;50.832;4.346;2023-04-25T00:14:35;16.83;;;3.90;;
24337;SDS011;12457;50.832;4.346;2023-04-25T00:17:01;21.38;;;6.43;;
24337;SDS011;12457;50.832;4.346;2023-04-25T00:19:28;14.93;;;4.22;;
24337;SDS011;12457;50.832;4.346;2023-04-25T00:21:54;17.33;;;4.40;;
24337;SDS011;12457;50.832;4.346;2023-04-25T00:24:20;20.80;;;4.47;;
24337;SDS011;12457;50.832;4.346;2023-04-25T00:26:46;19.55;;;4.85;;
24337;SDS011;12457;50.832;4.346;2023-04-25T00:29:12;17.60;;;4.22;;
24337;SDS011;12457;50.832;4.346;2023-04-25T00:31:38;18.52;;;5.35;;
24337;SDS011;12457;50.832;4.346;2023-04-25T00:34:04;21.38;;;4.07;;
24337;SDS011;12457;50.832;4.346;2023-04-25T00:36:31;24.75;;;4.97;;
24337;SDS011;12457;50.832;4.346;2023-04-25T00:39:06;25.17;;;5.25;;
24337;SDS011;12457;50.832;4.346;2023-04-25T00:41:33;16.05;;;4.97;;
24337;SDS011;12457;50.832;4.346;2023-04-25T00:43:59;22.42;;;5.57;;
24337;SDS011;12457;50.832;4.346;2023-04-25T00:46:27;24.02;;;5.63;;
24337;SDS011;12457;50.832;4.346;2023-04-25T00:48:53;28.25;;;6.57;;
24337;SDS011;12457;50.832;4.346;2023-04-25T00:51:20;32.90;;;5.70;;
24337;SDS011;12457;50.832;4.346;2023-04-25T00:53:47;20.38;;;5.18;;
24337;SDS011;12457;50.832;4.346;2023-04-25T00:56:14;22.80;;;5.00;;
24337;SDS011;12457;50.832;4.346;2023-04-25T00:58:41;15.88;;;4.57;;
24337;SDS011;12457;50.832;4.346;2023-04-25T01:01:08;24.00;;;5.47;;
24337;SDS011;12457;50.832;4.346;2023-04-25T01:03:35;23.55;;;6.43;;
24337;SDS011;12457;50.832;4.346;2023-04-25T01:06:05;25.60;;;6.78;;
24337;SDS011;12457;50.832;4.346;2023-04-25T01:08:34;24.85;;;5.07;;
24337;SDS011;12457;50.832;4.346;2023-04-25T01:11:00;26.25;;;5.80;;
24337;SDS011;12457;50.832;4.346;2023-04-25T01:13:26;23.73;;;5.43;;
24337;SDS011;12457;50.832;4.346;2023-04-25T01:15:52;29.38;;;5.28;;
24337;SDS011;12457;50.832;4.346;2023-04-25T01:18:18;28.75;;;5.50;;
24337;SDS011;12457;50.832;4.346;2023-04-25T01:20:46;22.63;;;5.97;;
24337;SDS011;12457;50.832;4.346;2023-04-25T01:23:12;23.92;;;5.90;;
24337;SDS011;12457;50.832;4.346;2023-04-25T01:25:38;22.08;;;5.53;;
24337;SDS011;12457;50.832;4.346;2023-04-25T01:28:05;25.45;;;5.95;;
24337;SDS011;12457;50.832;4.346;2023-04-25T01:30:31;17.83;;;5.40;;
24337;SDS011;12457;50.832;4.346;2023-04-25T01:32:57;23.52;;;6.55;;
24337;SDS011;12457;50.832;4.346;2023-04-25T01:35:24;26.50;;;5.15;;
24337;SDS011;12457;50.832;4.346;2023-04-25T01:37:50;26.88;;;6.28;;
24337;SDS011;12457;50.832;4.346;2023-04-25T01:40:16;25.80;;;5.70;;
24337;SDS011;12457;50.832;4.346;2023-04-25T01:42:44;22.48;;;5.90;;
24337;SDS011;12457;50.832;4.346;2023-04-25T01:45:10;27.08;;;5.80;;
24337;SDS011;12457;50.832;4.346;2023-04-25T01:47:37;20.80;;;6.00;;
24337;SDS011;12457;50.832;4.346;2023-04-25T01:50:05;24.73;;;5.30;;
24337;SDS011;12457;50.832;4.346;2023-04-25T01:52:32;25.85;;;5.82;;
24337;SDS011;12457;50.832;4.346;2023-04-25T01:57:43;17.95;;;5.45;;
24337;SDS011;12457;50.832;4.346;2023-04-25T02:00:09;22.10;;;6.15;;
24337;SDS011;12457;50.832;4.346;2023-04-25T02:02:35;24.23;;;6.32;;
24337;SDS011;12457;50.832;4.346;2023-04-25T02:05:01;24.88;;;5.78;;
24337;SDS011;12457;50.832;4.346;2023-04-25T02:07:27;30.90;;;5.93;;
24337;SDS011;12457;50.832;4.346;2023-04-25T02:09:52;18.17;;;6.05;;
24337;SDS011;12457;50.832;4.346;2023-04-25T02:12:19;20.55;;;5.88;;
24337;SDS011;12457;50.832;4.346;2023-04-25T02:14:45;17.73;;;5.25;;
24337;SDS011;12457;50.832;4.346;2023-04-25T02:17:12;26.77;;;5.68;;
24337;SDS011;12457;50.832;4.346;2023-04-25T02:19:39;23.33;;;5.30;;
24337;SDS011;12457;50.832;4.346;2023-04-25T02:22:05;22.65;;;5.30;;
24337;SDS011;12457;50.832;4.346;2023-04-25T02:27:34;20.38;;;5.95;;
24337;SDS011;12457;50.832;4.346;2023-04-25T02:30:00;21.15;;;5.15;;
24337;SDS011;12457;50.832;4.346;2023-04-25T02:32:26;29.55;;;5.82;;
24337;SDS011;12457;50.832;4.346;2023-04-25T02:34:52;24.15;;;5.93;;
24337;SDS011;12457;50.832;4.346;2023-04-25T02:37:18;23.23;;;6.07;;
24337;SDS011;12457;50.832;4.346;2023-04-25T02:39:47;20.38;;;5.97;;
24337;SDS011;12457;50.832;4.346;2023-04-25T02:42:12;30.95;;;6.80;;
24337;SDS011;12457;50.832;4.346;2023-04-25T02:44:39;23.52;;;6.05;;
24337;SDS011;12457;50.832;4.346;2023-04-25T02:47:05;20.83;;;5.38;;
24337;SDS011;12457;50.832;4.346;2023-04-25T02:49:31;21.40;;;5.55;;
24337;SDS011;12457;50.832;4.346;2023-04-25T02:51:56;24.45;;;5.97;;
24337;SDS011;12457;50.832;4.346;2023-04-25T02:54:22;24.30;;;7.28;;
24337;SDS011;12457;50.832;4.346;2023-04-25T02:56:48;33.05;;;6.65;;
24337;SDS011;12457;50.832;4.346;2023-04-25T02:59:13;31.92;;;7.07;;
24337;SDS011;12457;50.832;4.346;2023-04-25T03:01:39;29.77;;;6.03;;
24337;SDS011;12457;50.832;4.346;2023-04-25T03:04:05;36.03;;;7.47;;
24337;SDS011;12457;50.832;4.346;2023-04-25T03:06:30;17.80;;;5.30;;
24337;SDS011;12457;50.832;4.346;2023-04-25T03:08:56;29.42;;;5.80;;
24337;SDS011;12457;50.832;4.346;2023-04-25T03:11:22;28.92;;;6.90;;
24337;SDS011;12457;50.832;4.346;2023-04-25T03:13:49;26.70;;;5.78;;
24337;SDS011;12457;50.832;4.346;2023-04-25T03:16:15;24.63;;;5.88;;
24337;SDS011;12457;50.832;4.346;2023-04-25T03:18:41;26.90;;;6.25;;
24337;SDS011;12457;50.832;4.346;2023-04-25T03:21:06;24.92;;;5.15;;
24337;SDS011;12457;50.832;4.346;2023-04-25T03:23:32;30.10;;;6.50;;
24337;SDS011;12457;50.832;4.346;2023-04-25T03:25:58;25.10;;;6.50;;
24337;SDS011;12457;50.832;4.346;2023-04-25T03:28:24;28.58;;;6.05;;
24337;SDS011;12457;50.832;4.346;2023-04-25T03:30:50;19.45;;;6.80;;
24337;SDS011;12457;50.832;4.346;2023-04-25T03:33:16;24.90;;;6.65;;
24337;SDS011;12457;50.832;4.346;2023-04-25T03:35:41;21.92;;;5.90;;
24337;SDS011;12457;50.832;4.346;2023-04-25T03:38:07;24.25;;;6.03;;
24337;SDS011;12457;50.832;4.346;2023-04-25T03:40:33;23.92;;;6.85;;
24337;SDS011;12457;50.832;4.346;2023-04-25T03:42:59;23.23;;;5.85;;
24337;SDS011;12457;50.832;4.346;2023-04-25T03:45:26;25.20;;;6.07;;
24337;SDS011;12457;50.832;4.346;2023-04-25T03:47:52;28.15;;;5.80;;
24337;SDS011;12457;50.832;4.346;2023-04-25T03:50:17;35.20;;;6.13;;
24337;SDS011;12457;50.832;4.346;2023-04-25T03:52:43;25.38;;;5.72;;
24337;SDS011;12457;50.832;4.346;2023-04-25T03:55:18;23.05;;;6.10;;
24337;SDS011;12457;50.832;4.346;2023-04-25T03:57:44;31.95;;;5.53;;
24337;SDS011;12457;50.832;4.346;2023-04-25T04:00:10;25.30;;;5.95;;
24337;SDS011;12457;50.832;4.346;2023-04-25T04:02:36;22.65;;;5.38;;
24337;SDS011;12457;50.832;4.346;2023-04-25T04:05:04;29.95;;;5.60;;
24337;SDS011;12457;50.832;4.346;2023-04-25T04:07:30;21.00;;;6.10;;
24337;SDS011;12457;50.832;4.346;2023-04-25T04:09:59;22.90;;;6.35;;
24337;SDS011;12457;50.832;4.346;2023-04-25T04:12:24;29.88;;;6.32;;
24337;SDS011;12457;50.832;4.346;2023-04-25T04:14:50;20.25;;;5.25;;
24337;SDS011;12457;50.832;4.346;2023-04-25T04:17:16;22.48;;;5.63;;
24337;SDS011;12457;50.832;4.346;2023-04-25T04:19:41;28.60;;;5.88;;
24337;SDS011;12457;50.832;4.346;2023-04-25T04:22:07;18.80;;;5.28;;
24337;SDS011;12457;50.832;4.346;2023-04-25T04:24:33;13.40;;;4.50;;
24337;SDS011;12457;50.832;4.346;2023-04-25T04:26:59;23.58;;;5.10;;
24337;SDS011;12457;50.832;4.346;2023-04-25T04:29:24;18.77;;;5.40;;
24337;SDS011;12457;50.832;4.346;2023-04-25T04:31:50;23.10;;;5.03;;
24337;SDS011;12457;50.832;4.346;2023-04-25T04:34:19;23.27;;;5.28;;
24337;SDS011;12457;50.832;4.346;2023-04-25T04:36:45;18.70;;;5.15;;
24337;SDS011;12457;50.832;4.346;2023-04-25T04:39:11;13.43;;;4.85;;
24337;SDS011;12457;50.832;4.346;2023-04-25T04:41:37;16.90;;;5.50;;
24337;SDS011;12457;50.832;4.346;2023-04-25T04:44:03;18.17;;;5.43;;
24337;SDS011;12457;50.832;4.346;2023-04-25T04:46:31;20.05;;;4.97;;
24337;SDS011;12457;50.832;4.346;2023-04-25T04:49:04;22.45;;;5.68;;
24337;SDS011;12457;50.832;4.346;2023-04-25T04:51:30;29.08;;;5.65;;
24337;SDS011;12457;50.832;4.346;2023-04-25T04:53:56;24.17;;;6.03;;
24337;SDS011;12457;50.832;4.346;2023-04-25T04:56:23;19.65;;;5.80;;
24337;SDS011;12457;50.832;4.346;2023-04-25T04:58:50;19.92;;;5.70;;
24337;SDS011;12457;50.832;4.346;2023-04-25T05:01:17;19.98;;;5.80;;
24337;SDS011;12457;50.832;4.346;2023-04-25T05:03:43;20.48;;;5.90;;
24337;SDS011;12457;50.832;4.346;2023-04-25T05:06:08;23.15;;;6.15;;
24337;SDS011;12457;50.832;4.346;2023-04-25T05:08:34;25.45;;;5.97;;
24337;SDS011;12457;50.832;4.346;2023-04-25T05:11:01;24.98;;;5.60;;
24337;SDS011;12457;50.832;4.346;2023-04-25T05:13:27;27.20;;;5.30;;
24337;SDS011;12457;50.832;4.346;2023-04-25T05:15:52;28.95;;;5.47;;
24337;SDS011;12457;50.832;4.346;2023-04-25T05:18:18;14.88;;;5.35;;
24337;SDS011;12457;50.832;4.346;2023-04-25T05:20:44;17.70;;;4.82;;
24337;SDS011;12457;50.832;4.346;2023-04-25T05:23:09;16.83;;;5.40;;
24337;SDS011;12457;50.832;4.346;2023-04-25T05:25:35;18.40;;;6.13;;
24337;SDS011;12457;50.832;4.346;2023-04-25T05:28:01;16.80;;;5.82;;
24337;SDS011;12457;50.832;4.346;2023-04-25T05:30:27;17.20;;;5.85;;
24337;SDS011;12457;50.832;4.346;2023-04-25T05:32:52;26.48;;;6.80;;
24337;SDS011;12457;50.832;4.346;2023-04-25T05:35:18;24.75;;;6.65;;
24337;SDS011;12457;50.832;4.346;2023-04-25T05:37:44;20.85;;;6.55;;
24337;SDS011;12457;50.832;4.346;2023-04-25T05:40:15;16.90;;;5.72;;
24337;SDS011;12457;50.832;4.346;2023-04-25T05:42:41;25.83;;;7.82;;
24337;SDS011;12457;50.832;4.346;2023-04-25T05:45:07;32.15;;;8.80;;
24337;SDS011;12457;50.832;4.346;2023-04-25T05:47:32;20.95;;;7.65;;
24337;SDS011;12457;50.832;4.346;2023-04-25T05:49:58;16.83;;;6.43;;
24337;SDS011;12457;50.832;4.346;2023-04-25T05:52:24;20.73;;;5.88;;
24337;SDS011;12457;50.832;4.346;2023-04-25T05:54:50;19.67;;;5.82;;
24337;SDS011;12457;50.832;4.346;2023-04-25T05:57:25;16.95;;;5.15;;
24337;SDS011;12457;50.832;4.346;2023-04-25T05:59:52;21.02;;;5.95;;
24337;SDS011;12457;50.832;4.346;2023-04-25T06:02:18;19.52;;;5.72;;
24337;SDS011;12457;50.832;4.346;2023-04-25T06:04:45;26.77;;;6.18;;
24337;SDS011;12457;50.832;4.346;2023-04-25T06:07:11;21.33;;;6.25;;
24337;SDS011;12457;50.832;4.346;2023-04-25T06:09:38;28.02;;;6.00;;
24337;SDS011;12457;50.832;4.346;2023-04-25T06:15:06;18.55;;;5.10;;
24337;SDS011;12457;50.832;4.346;2023-04-25T06:17:32;14.43;;;5.72;;
24337;SDS011;12457;50.832;4.346;2023-04-25T06:19:58;21.95;;;7.05;;
24337;SDS011;12457;50.832;4.346;2023-04-25T06:22:24;30.83;;;7.38;;
24337;SDS011;12457;50.832;4.346;2023-04-25T06:24:50;23.30;;;7.05;;
24337;SDS011;12457;50.832;4.346;2023-04-25T06:27:15;19.23;;;6.50;;
24337;SDS011;12457;50.832;4.346;2023-04-25T06:29:41;22.52;;;6.20;;
24337;SDS011;12457;50.832;4.346;2023-04-25T06:32:07;22.98;;;6.30;;
24337;SDS011;12457;50.832;4.346;2023-04-25T06:34:32;27.08;;;5.20;;
24337;SDS011;12457;50.832;4.346;2023-04-25T06:36:58;22.23;;;5.00;;
24337;SDS011;12457;50.832;4.346;2023-04-25T06:39:24;21.40;;;4.93;;
24337;SDS011;12457;50.832;4.346;2023-04-25T06:41:59;13.38;;;4.70;;
24337;SDS011;12457;50.832;4.346;2023-04-25T06:44:26;22.13;;;5.20;;
24337;SDS011;12457;50.832;4.346;2023-04-25T06:46:54;18.17;;;5.07;;
24337;SDS011;12457;50.832;4.346;2023-04-25T06:49:20;10.98;;;4.32;;
24337;SDS011;12457;50.832;4.346;2023-04-25T06:51:46;21.92;;;4.63;;
24337;SDS011;12457;50.832;4.346;2023-04-25T06:54:11;14.68;;;4.55;;
24337;SDS011;12457;50.832;4.346;2023-04-25T06:56:37;18.48;;;4.50;;
24337;SDS011;12457;50.832;4.346;2023-04-25T06:59:03;23.27;;;4.72;;
24337;SDS011;12457;50.832;4.346;2023-04-25T07:01:29;20.95;;;3.83;;
24337;SDS011;12457;50.832;4.346;2023-04-25T07:03:55;23.92;;;4.25;;
24337;SDS011;12457;50.832;4.346;2023-04-25T07:06:21;18.85;;;4.20;;
24337;SDS011;12457;50.832;4.346;2023-04-25T07:08:46;15.60;;;3.95;;
24337;SDS011;12457;50.832;4.346;2023-04-25T07:11:25;12.25;;;3.35;;
24337;SDS011;12457;50.832;4.346;2023-04-25T07:13:50;20.25;;;3.72;;
24337;SDS011;12457;50.832;4.346;2023-04-25T07:16:16;25.33;;;3.92;;
24337;SDS011;12457;50.832;4.346;2023-04-25T07:18:42;16.52;;;3.58;;
24337;SDS011;12457;50.832;4.346;2023-04-25T07:21:08;16.58;;;3.75;;
24337;SDS011;12457;50.832;4.346;2023-04-25T07:23:33;19.42;;;3.83;;
24337;SDS011;12457;50.832;4.346;2023-04-25T07:25:59;17.65;;;3.72;;
24337;SDS011;12457;50.832;4.346;2023-04-25T07:28:25;14.25;;;3.10;;
24337;SDS011;12457;50.832;4.346;2023-04-25T07:30:51;12.50;;;3.53;;
24337;SDS011;12457;50.832;4.346;2023-04-25T07:33:16;14.50;;;3.40;;
24337;SDS011;12457;50.832;4.346;2023-04-25T07:35:45;15.50;;;3.97;;
24337;SDS011;12457;50.832;4.346;2023-04-25T07:38:10;19.33;;;4.10;;
24337;SDS011;12457;50.832;4.346;2023-04-25T07:40:36;14.20;;;3.05;;
24337;SDS011;12457;50.832;4.346;2023-04-25T07:43:02;12.23;;;3.08;;
24337;SDS011;12457;50.832;4.346;2023-04-25T07:45:27;21.45;;;3.75;;
24337;SDS011;12457;50.832;4.346;2023-04-25T07:47:53;16.80;;;3.30;;
24337;SDS011;12457;50.832;4.346;2023-04-25T07:50:19;18.23;;;4.40;;
24337;SDS011;12457;50.832;4.346;2023-04-25T07:52:44;26.20;;;5.93;;
24337;SDS011;12457;50.832;4.346;2023-04-25T07:55:10;33.13;;;8.13;;
24337;SDS011;12457;50.832;4.346;2023-04-25T07:57:48;17.38;;;3.35;;
24337;SDS011;12457;50.832;4.346;2023-04-25T08:00:14;23.08;;;4.88;;
24337;SDS011;12457;50.832;4.346;2023-04-25T08:02:40;15.23;;;3.30;;
24337;SDS011;12457;50.832;4.346;2023-04-25T08:05:07;16.02;;;3.42;;
24337;SDS011;12457;50.832;4.346;2023-04-25T08:07:36;13.00;;;3.28;;
24337;SDS011;12457;50.832;4.346;2023-04-25T08:10:04;15.63;;;2.95;;
24337;SDS011;12457;50.832;4.346;2023-04-25T08:12:30;13.10;;;3.40;;
24337;SDS011;12457;50.832;4.346;2023-04-25T08:14:56;15.85;;;3.42;;
24337;SDS011;12457;50.832;4.346;2023-04-25T08:17:22;10.10;;;3.05;;
24337;SDS011;12457;50.832;4.346;2023-04-25T08:19:47;30.05;;;5.55;;
24337;SDS011;12457;50.832;4.346;2023-04-25T08:22:14;27.60;;;4.82;;
24337;SDS011;12457;50.832;4.346;2023-04-25T08:24:42;11.20;;;3.20;;
24337;SDS011;12457;50.832;4.346;2023-04-25T08:27:11;9.77;;;3.15;;
24337;SDS011;12457;50.832;4.346;2023-04-25T08:29:37;11.35;;;4.05;;
24337;SDS011;12457;50.832;4.346;2023-04-25T08:32:03;15.80;;;3.70;;
24337;SDS011;12457;50.832;4.346;2023-04-25T08:34:32;19.10;;;4.57;;
24337;SDS011;12457;50.832;4.346;2023-04-25T08:36:58;21.17;;;3.97;;
24337;SDS011;12457;50.832;4.346;2023-04-25T08:39:23;18.08;;;3.72;;
24337;SDS011;12457;50.832;4.346;2023-04-25T08:41:56;14.82;;;3.38;;
24337;SDS011;12457;50.832;4.346;2023-04-25T08:44:23;6.55;;;2.72;;
24337;SDS011;12457;50.832;4.346;2023-04-25T08:46:49;18.40;;;3.25;;
24337;SDS011;12457;50.832;4.346;2023-04-25T08:49:17;13.48;;;2.65;;
24337;SDS011;12457;50.832;4.346;2023-04-25T08:51:44;10.20;;;3.63;;
24337;SDS011;12457;50.832;4.346;2023-04-25T08:54:14;16.17;;;3.00;;
24337;SDS011;12457;50.832;4.346;2023-04-25T08:56:40;15.23;;;3.15;;
24337;SDS011;12457;50.832;4.346;2023-04-25T08:59:10;11.30;;;2.85;;
24337;SDS011;12457;50.832;4.346;2023-04-25T09:01:36;12.13;;;2.72;;
24337;SDS011;12457;50.832;4.346;2023-04-25T09:04:02;15.25;;;3.30;;
24337;SDS011;12457;50.832;4.346;2023-04-25T09:06:29;9.52;;;2.38;;
24337;SDS011;12457;50.832;4.346;2023-04-25T09:09:00;17.92;;;3.40;;
24337;SDS011;12457;50.832;4.346;2023-04-25T09:11:34;12.32;;;2.70;;
24337;SDS011;12457;50.832;4.346;2023-04-25T09:17:04;8.70;;;2.20;;
24337;SDS011;12457;50.832;4.346;2023-04-25T09:19:32;9.38;;;2.28;;
24337;SDS011;12457;50.832;4.346;2023-04-25T09:34:57;11.80;;;3.97;;
24337;SDS011;12457;50.832;4.346;2023-04-25T09:37:24;10.15;;;2.45;;
24337;SDS011;12457;50.832;4.346;2023-04-25T09:39:56;11.98;;;2.83;;
24337;SDS011;12457;50.832;4.346;2023-04-25T09:42:26;11.65;;;3.00;;
24337;SDS011;12457;50.832;4.346;2023-04-25T09:44:54;14.40;;;2.83;;
24337;SDS011;12457;50.832;4.346;2023-04-25T09:47:22;12.40;;;2.90;;
24337;SDS011;12457;50.832;4.346;2023-04-25T09:49:49;11.88;;;2.83;;
24337;SDS011;12457;50.832;4.346;2023-04-25T09:52:16;10.65;;;2.67;;
24337;SDS011;12457;50.832;4.346;2023-04-25T09:54:44;14.70;;;4.60;;
24337;SDS011;12457;50.832;4.346;2023-04-25T09:57:11;13.98;;;2.78;;
24337;SDS011;12457;50.832;4.346;2023-04-25T09:59:45;9.57;;;2.10;;
24337;SDS011;12457;50.832;4.346;2023-04-25T10:02:15;13.77;;;2.33;;
24337;SDS011;12457;50.832;4.346;2023-04-25T10:04:55;11.02;;;2.58;;
24337;SDS011;12457;50.832;4.346;2023-04-25T10:07:24;12.15;;;2.58;;
24337;SDS011;12457;50.832;4.346;2023-04-25T10:10:02;6.13;;;1.70;;
24337;SDS011;12457;50.832;4.346;2023-04-25T10:12:29;8.98;;;2.13;;
24337;SDS011;12457;50.832;4.346;2023-04-25T10:14:59;9.27;;;2.40;;
24337;SDS011;12457;50.832;4.346;2023-04-25T10:17:25;8.10;;;1.90;;
24337;SDS011;12457;50.832;4.346;2023-04-25T10:19:55;5.68;;;1.98;;
24337;SDS011;12457;50.832;4.346;2023-04-25T10:25:07;6.30;;;2.17;;
24337;SDS011;12457;50.832;4.346;2023-04-25T10:27:33;8.80;;;2.22;;
24337;SDS011;12457;50.832;4.346;2023-04-25T10:30:18;5.07;;;1.80;;
24337;SDS011;12457;50.832;4.346;2023-04-25T10:32:44;4.00;;;1.67;;
24337;SDS011;12457;50.832;4.346;2023-04-25T10:35:29;7.97;;;1.90;;
24337;SDS011;12457;50.832;4.346;2023-04-25T10:38:11;7.10;;;1.95;;
24337;SDS011;12457;50.832;4.346;2023-04-25T10:40:39;8.77;;;2.08;;
24337;SDS011;12457;50.832;4.346;2023-04-25T10:46:29;5.80;;;2.17;;
24337;SDS011;12457;50.832;4.346;2023-04-25T10:49:01;2.75;;;1.45;;
24337;SDS011;12457;50.832;4.346;2023-04-25T10:51:28;8.20;;;2.20;;
24337;SDS011;12457;50.832;4.346;2023-04-25T10:54:05;10.88;;;2.05;;
24337;SDS011;12457;50.832;4.346;2023-04-25T10:56:33;9.70;;;2.45;;
24337;SDS011;12457;50.832;4.346;2023-04-25T10:59:09;8.43;;;2.58;;
24337;SDS011;12457;50.832;4.346;2023-04-25T11:01:46;18.48;;;2.90;;
24337;SDS011;12457;50.832;4.346;2023-04-25T11:04:20;8.55;;;2.05;;
24337;SDS011;12457;50.832;4.346;2023-04-25T11:06:58;9.27;;;2.60;;
24337;SDS011;12457;50.832;4.346;2023-04-25T11:09:36;14.57;;;3.08;;
24337;SDS011;12457;50.832;4.346;2023-04-25T11:12:05;11.02;;;3.35;;
24337;SDS011;12457;50.832;4.346;2023-04-25T11:14:33;7.57;;;2.65;;
24337;SDS011;12457;50.832;4.346;2023-04-25T11:16:59;11.20;;;3.15;;
24337;SDS011;12457;50.832;4.346;2023-04-25T11:19:26;8.30;;;2.15;;
24337;SDS011;12457;50.832;4.346;2023-04-25T11:21:56;12.82;;;3.22;;
24337;SDS011;12457;50.832;4.346;2023-04-25T11:24:26;9.98;;;2.10;;
24337;SDS011;12457;50.832;4.346;2023-04-25T11:26:52;9.85;;;2.10;;
24337;SDS011;12457;50.832;4.346;2023-04-25T11:29:21;6.68;;;1.85;;
24337;SDS011;12457;50.832;4.346;2023-04-25T11:31:48;7.38;;;1.85;;
24337;SDS011;12457;50.832;4.346;2023-04-25T11:34:17;10.15;;;3.17;;
24337;SDS011;12457;50.832;4.346;2023-04-25T11:36:44;8.30;;;2.50;;
24337;SDS011;12457;50.832;4.346;2023-04-25T11:39:10;9.95;;;1.80;;
24337;SDS011;12457;50.832;4.346;2023-04-25T11:41:40;8.10;;;2.20;;
24337;SDS011;12457;50.832;4.346;2023-04-25T11:44:06;10.00;;;2.25;;
24337;SDS011;12457;50.832;4.346;2023-04-25T11:46:35;10.68;;;2.20;;
24337;SDS011;12457;50.832;4.346;2023-04-25T11:49:01;8.40;;;1.95;;
24337;SDS011;12457;50.832;4.346;2023-04-25T11:51:48;6.80;;;2.25;;
24337;SDS011;12457;50.832;4.346;2023-04-25T11:54:14;5.68;;;2.50;;
24337;SDS011;12457;50.832;4.346;2023-04-25T11:56:41;8.80;;;2.60;;
24337;SDS011;12457;50.832;4.346;2023-04-25T11:59:07;7.55;;;2.05;;
24337;SDS011;12457;50.832;4.346;2023-04-25T12:01:37;4.40;;;1.55;;
24337;SDS011;12457;50.832;4.346;2023-04-25T12:04:36;5.50;;;1.63;;
24337;SDS011;12457;50.832;4.346;2023-04-25T12:06:55;5.78;;;1.88;;
24337;SDS011;12457;50.832;4.346;2023-04-25T12:09:31;6.72;;;1.90;;
24337;SDS011;12457;50.832;4.346;2023-04-25T12:11:58;7.10;;;1.85;;
24337;SDS011;12457;50.832;4.346;2023-04-25T12:14:28;8.27;;;2.28;;
24337;SDS011;12457;50.832;4.346;2023-04-25T12:16:57;5.45;;;2.03;;
24337;SDS011;12457;50.832;4.346;2023-04-25T12:19:24;8.10;;;1.75;;
24337;SDS011;12457;50.832;4.346;2023-04-25T12:21:50;6.30;;;1.80;;
24337;SDS011;12457;50.832;4.346;2023-04-25T12:24:23;6.38;;;1.83;;
24337;SDS011;12457;50.832;4.346;2023-04-25T12:29:28;8.20;;;1.73;;
24337;SDS011;12457;50.832;4.346;2023-04-25T12:31:54;7.63;;;1.40;;
24337;SDS011;12457;50.832;4.346;2023-04-25T12:34:21;10.27;;;1.95;;
24337;SDS011;12457;50.832;4.346;2023-04-25T12:36:48;8.40;;;2.00;;
24337;SDS011;12457;50.832;4.346;2023-04-25T12:39:17;4.53;;;1.40;;
24337;SDS011;12457;50.832;4.346;2023-04-25T12:41:44;4.55;;;1.40;;
24337;SDS011;12457;50.832;4.346;2023-04-25T12:44:11;3.78;;;1.42;;
24337;SDS011;12457;50.832;4.346;2023-04-25T12:46:38;4.60;;;1.23;;
24337;SDS011;12457;50.832;4.346;2023-04-25T12:49:04;5.30;;;1.45;;
24337;SDS011;12457;50.832;4.346;2023-04-25T12:51:31;5.68;;;1.35;;
24337;SDS011;12457;50.832;4.346;2023-04-25T12:53:58;5.15;;;1.63;;
24337;SDS011;12457;50.832;4.346;2023-04-25T12:56:24;6.07;;;2.13;;
24337;SDS011;12457;50.832;4.346;2023-04-25T12:58:51;4.63;;;1.73;;
24337;SDS011;12457;50.832;4.346;2023-04-25T13:01:17;10.13;;;2.10;;
24337;SDS011;12457;50.832;4.346;2023-04-25T13:03:42;4.28;;;1.63;;
24337;SDS011;12457;50.832;4.346;2023-04-25T13:06:09;6.90;;;1.67;;
24337;SDS011;12457;50.832;4.346;2023-04-25T13:08:35;6.65;;;1.70;;
24337;SDS011;12457;50.832;4.346;2023-04-25T13:11:01;3.92;;;1.70;;
24337;SDS011;12457;50.832;4.346;2023-04-25T13:13:28;7.45;;;2.03;;
24337;SDS011;12457;50.832;4.346;2023-04-25T13:15:54;4.80;;;1.55;;
24337;SDS011;12457;50.832;4.346;2023-04-25T13:18:20;8.43;;;1.85;;
24337;SDS011;12457;50.832;4.346;2023-04-25T13:20:46;6.10;;;1.75;;
24337;SDS011;12457;50.832;4.346;2023-04-25T13:23:12;7.47;;;2.20;;
24337;SDS011;12457;50.832;4.346;2023-04-25T13:25:37;4.80;;;1.50;;
24337;SDS011;12457;50.832;4.346;2023-04-25T13:28:03;5.93;;;1.60;;
24337;SDS011;12457;50.832;4.346;2023-04-25T13:30:29;6.82;;;1.65;;
24337;SDS011;12457;50.832;4.346;2023-04-25T13:32:55;6.80;;;1.70;;
24337;SDS011;12457;50.832;4.346;2023-04-25T13:35:22;6.38;;;1.80;;
24337;SDS011;12457;50.832;4.346;2023-04-25T13:37:48;4.65;;;1.35;;
24337;SDS011;12457;50.832;4.346;2023-04-25T13:40:13;8.20;;;2.00;;
24337;SDS011;12457;50.832;4.346;2023-04-25T13:42:39;5.07;;;2.58;;
24337;SDS011;12457;50.832;4.346;2023-04-25T13:45:06;4.32;;;1.48;;
24337;SDS011;12457;50.832;4.346;2023-04-25T13:47:32;3.97;;;1.30;;
24337;SDS011;12457;50.832;4.346;2023-04-25T13:49:59;2.70;;;1.40;;
24337;SDS011;12457;50.832;4.346;2023-04-25T13:52:25;3.72;;;1.67;;
24337;SDS011;12457;50.832;4.346;2023-04-25T13:54:52;4.72;;;2.45;;
24337;SDS011;12457;50.832;4.346;2023-04-25T13:57:18;6.10;;;1.90;;
24337;SDS011;12457;50.832;4.346;2023-04-25T13:59:44;8.70;;;1.45;;
24337;SDS011;12457;50.832;4.346;2023-04-25T14:02:11;9.90;;;2.03;;
24337;SDS011;12457;50.832;4.346;2023-04-25T14:04:37;6.90;;;1.60;;
24337;SDS011;12457;50.832;4.346;2023-04-25T14:07:03;5.82;;;1.70;;
24337;SDS011;12457;50.832;4.346;2023-04-25T14:09:30;6.55;;;1.55;;
24337;SDS011;12457;50.832;4.346;2023-04-25T14:11:55;4.45;;;1.35;;
24337;SDS011;12457;50.832;4.346;2023-04-25T14:14:21;10.20;;;1.70;;
24337;SDS011;12457;50.832;4.346;2023-04-25T14:16:48;4.45;;;1.23;;
24337;SDS011;12457;50.832;4.346;2023-04-25T14:19:15;7.85;;;1.58;;
24337;SDS011;12457;50.832;4.346;2023-04-25T14:21:41;10.85;;;1.90;;
24337;SDS011;12457;50.832;4.346;2023-04-25T14:24:08;6.00;;;1.90;;
24337;SDS011;12457;50.832;4.346;2023-04-25T14:26:34;4.18;;;1.40;;
24337;SDS011;12457;50.832;4.346;2023-04-25T14:29:03;6.10;;;1.70;;
24337;SDS011;12457;50.832;4.346;2023-04-25T14:31:30;5.43;;;1.80;;
24337;SDS011;12457;50.832;4.346;2023-04-25T14:33:56;4.53;;;1.88;;
24337;SDS011;12457;50.832;4.346;2023-04-25T14:36:21;6.10;;;1.70;;
24337;SDS011;12457;50.832;4.346;2023-04-25T14:38:47;7.15;;;1.75;;
24337;SDS011;12457;50.832;4.346;2023-04-25T14:41:13;6.00;;;1.60;;
24337;SDS011;12457;50.832;4.346;2023-04-25T14:43:39;8.35;;;1.98;;
24337;SDS011;12457;50.832;4.346;2023-04-25T14:46:05;5.30;;;1.92;;
24337;SDS011;12457;50.832;4.346;2023-04-25T14:48:31;4.93;;;1.85;;
24337;SDS011;12457;50.832;4.346;2023-04-25T14:50:57;9.93;;;2.08;;
24337;SDS011;12457;50.832;4.346;2023-04-25T14:53:25;6.38;;;1.83;;
24337;SDS011;12457;50.832;4.346;2023-04-25T14:55:51;7.22;;;1.80;;
24337;SDS011;12457;50.832;4.346;2023-04-25T14:58:17;6.50;;;1.65;;
24337;SDS011;12457;50.832;4.346;2023-04-25T15:00:43;5.93;;;1.88;;
24337;SDS011;12457;50.832;4.346;2023-04-25T15:03:09;9.30;;;2.40;;
24337;SDS011;12457;50.832;4.346;2023-04-25T15:05:37;5.85;;;1.52;;
24337;SDS011;12457;50.832;4.346;2023-04-25T15:08:05;12.00;;;2.20;;
24337;SDS011;12457;50.832;4.346;2023-04-25T15:10:31;4.30;;;1.38;;
24337;SDS011;12457;50.832;4.346;2023-04-25T15:12:57;9.70;;;2.22;;